Time;durP1;ratioP1;P1;durP2;ratioP2;P2;SDS_P1;SDS_P2;PMS_P1;PMS_P2;Temp;Humidity;BMP_temperature;BMP_pressure;BME280_temperature;BME280_humidity;BME280_pressure;Samples;Min_cycle;Max_cycle;Signal;HPM_P1;HPM_P2
2022/07/22 00:00:50;;;;;;;;;20.67;19.33;;;;;24.61;99.24;101694.19;5079585;28;45228;-74
2022/07/22 00:03:15;;;;;;;;;22.00;21.00;;;;;24.54;98.43;101693.50;5078864;28;46446;-72
2022/07/22 00:05:41;;;;;;;;;20.67;20.67;;;;;24.54;98.43;101686.28;5079222;28;45328;-72
2022/07/22 00:08:06;;;;;;;;;20.00;18.00;;;;;24.52;98.51;101696.28;5078657;28;60288;-72
2022/07/22 00:10:31;;;;;;;;;22.00;18.00;;;;;24.47;99.03;101690.13;5078476;28;59959;-74
2022/07/22 00:12:57;;;;;;;;;16.67;16.67;;;;;24.48;98.84;101699.13;5078334;28;62325;-71
2022/07/22 00:15:22;;;;;;;;;18.00;15.00;;;;;24.45;99.07;101697.41;5078192;28;55698;-74
2022/07/22 00:17:47;;;;;;;;;19.67;15.33;;;;;24.42;98.66;101692.09;5060553;28;45454;-72
2022/07/22 00:20:13;;;;;;;;;19.67;18.33;;;;;24.39;98.85;101691.31;5079350;28;45498;-73
2022/07/22 00:22:38;;;;;;;;;20.33;18.67;;;;;24.37;98.95;101696.78;5078666;28;46289;-72
2022/07/22 00:25:04;;;;;;;;;17.00;17.00;;;;;24.33;99.13;101684.25;5060948;28;45248;-72
2022/07/22 00:27:29;;;;;;;;;19.00;16.00;;;;;24.34;99.69;101687.84;5060198;28;45173;-71
2022/07/22 00:29:55;;;;;;;;;19.00;17.67;;;;;24.27;99.54;101688.06;5060052;28;59515;-72
2022/07/22 00:32:20;;;;;;;;;20.67;19.00;;;;;24.26;99.97;101680.00;5059797;28;64110;-72
2022/07/22 00:34:45;;;;;;;;;21.33;20.33;;;;;24.24;99.60;101673.78;5078879;28;45431;-71
2022/07/22 00:37:11;;;;;;;;;21.67;21.67;;;;;24.18;100.00;101671.25;5060012;28;54708;-71
2022/07/22 00:39:37;;;;;;;;;27.00;20.33;;;;;24.18;99.84;101676.66;5078326;28;51326;-72
2022/07/22 00:42:02;;;;;;;;;19.00;19.00;;;;;24.13;99.77;101674.13;5060403;28;45936;-73
2022/07/22 00:44:28;;;;;;;;;28.00;21.00;;;;;24.13;100.00;101670.53;5078509;28;45449;-72
2022/07/22 00:46:53;;;;;;;;;21.67;20.00;;;;;24.10;100.00;101665.25;5078047;28;45339;-74
2022/07/22 00:49:19;;;;;;;;;19.00;19.00;;;;;24.09;100.00;101664.38;5078071;28;54890;-72
2022/07/22 00:51:45;;;;;;;;;20.67;17.33;;;;;24.05;100.00;101674.38;5077820;28;65450;-72
2022/07/22 00:54:11;;;;;;;;;16.67;15.33;;;;;24.02;100.00;101663.69;5077928;28;45300;-72
2022/07/22 00:56:37;;;;;;;;;17.00;16.00;;;;;24.01;100.00;101658.31;5059325;28;52017;-72
2022/07/22 00:59:06;;;;;;;;;22.33;19.67;;;;;23.95;100.00;101651.31;5078588;28;45521;-71
2022/07/22 01:01:32;;;;;;;;;20.67;19.33;;;;;23.91;100.00;101649.63;5059781;28;45690;-72
2022/07/22 01:03:57;;;;;;;;;16.00;14.00;;;;;23.90;100.00;101658.66;5060276;28;45463;-74
2022/07/22 01:06:23;;;;;;;;;20.33;18.67;;;;;23.91;100.00;101657.72;5060484;28;45485;-71
2022/07/22 01:08:48;;;;;;;;;20.00;17.00;;;;;23.89;100.00;101654.19;5078319;28;45394;-72
2022/07/22 01:11:18;;;;;;;;;20.33;18.00;;;;;23.85;100.00;101655.22;5077693;28;53648;-74
2022/07/22 01:13:45;;;;;;;;;17.67;15.67;;;;;23.82;100.00;101658.03;5078170;28;45362;-72
2022/07/22 01:16:15;;;;;;;;;19.33;16.67;;;;;23.79;100.00;101656.28;5059473;28;45469;-71
2022/07/22 01:18:41;;;;;;;;;20.67;17.67;;;;;23.74;100.00;101650.16;5078255;28;45425;-72
2022/07/22 01:21:08;;;;;;;;;14.33;14.33;;;;;23.75;100.00;101659.13;5077777;28;45444;-71
2022/07/22 01:23:34;;;;;;;;;23.00;14.67;;;;;23.72;100.00;101653.84;5059749;28;45593;-72
2022/07/22 01:26:00;;;;;;;;;16.33;15.00;;;;;23.70;100.00;101651.19;5060044;28;45334;-72
2022/07/22 01:28:26;;;;;;;;;18.00;14.00;;;;;23.68;100.00;101655.75;5078036;28;45464;-72
2022/07/22 01:30:51;;;;;;;;;19.67;16.67;;;;;23.64;100.00;101656.75;5077621;28;49511;-71
2022/07/22 01:33:18;;;;;;;;;18.00;16.00;;;;;23.62;100.00;101657.72;5077841;28;45287;-73
2022/07/22 01:35:44;;;;;;;;;14.67;13.33;;;;;23.60;100.00;101654.19;5078028;28;45376;-75
2022/07/22 01:38:09;;;;;;;;;14.67;12.00;;;;;23.59;100.00;101650.56;5058781;28;45319;-71
2022/07/22 01:40:34;;;;;;;;;13.33;13.33;;;;;23.55;100.00;101643.53;5059361;28;45720;-73
2022/07/22 01:43:00;;;;;;;;;15.67;15.33;;;;;23.56;100.00;101649.81;5077344;28;49745;-72
2022/07/22 01:45:25;;;;;;;;;17.67;15.67;;;;;23.51;100.00;101642.75;5059036;28;49778;-72
2022/07/22 01:47:51;;;;;;;;;15.33;14.00;;;;;23.50;100.00;101648.19;5077850;28;45281;-74
2022/07/22 01:50:16;;;;;;;;;17.67;14.00;;;;;23.46;100.00;101647.38;5047764;28;48834;-71
2022/07/22 01:52:42;;;;;;;;;19.67;13.00;;;;;23.43;100.00;101651.97;5059383;28;45262;-72
2022/07/22 01:55:08;;;;;;;;;13.67;12.33;;;;;23.40;100.00;101646.69;5076652;28;45646;-72
2022/07/22 01:57:33;;;;;;;;;14.00;13.00;;;;;23.38;100.00;101646.69;5077564;28;45458;-72
2022/07/22 01:59:59;;;;;;;;;15.00;13.67;;;;;23.33;100.00;101621.72;5077199;28;46325;-72
2022/07/22 02:02:24;;;;;;;;;15.67;15.67;;;;;23.35;100.00;101637.84;5076876;28;57823;-73
2022/07/22 02:04:49;;;;;;;;;15.33;13.67;;;;;23.31;100.00;101630.78;5076702;28;56767;-71
2022/07/22 02:07:15;;;;;;;;;15.00;13.67;;;;;23.30;100.00;101627.19;5077370;28;45414;-71
2022/07/22 02:09:40;;;;;;;;;14.00;12.67;;;;;23.24;100.00;101620.19;5076882;28;47442;-72
2022/07/22 02:12:06;;;;;;;;;16.67;13.00;;;;;23.27;100.00;101635.34;5076718;28;62531;-74
2022/07/22 02:14:31;;;;;;;;;16.67;13.67;;;;;23.24;100.00;101641.72;5077060;28;45229;-71
2022/07/22 02:16:57;;;;;;;;;16.67;15.33;;;;;23.22;100.00;101640.91;5076563;28;56913;-72
2022/07/22 02:19:22;;;;;;;;;13.67;12.67;;;;;23.20;100.00;101641.88;5076660;28;52341;-72
2022/07/22 02:21:47;;;;;;;;;14.33;11.33;;;;;23.17;100.00;101634.75;5076471;28;62760;-71
2022/07/22 02:24:13;;;;;;;;;14.67;13.33;;;;;23.16;100.00;101635.66;5076854;28;45781;-71
2022/07/22 02:26:38;;;;;;;;;14.00;12.67;;;;;23.16;100.00;101635.66;5059006;28;45687;-71
2022/07/22 02:29:04;;;;;;;;;15.00;13.00;;;;;23.13;100.00;101635.78;5076916;28;45731;-72
2022/07/22 02:31:29;;;;;;;;;15.33;12.67;;;;;23.14;100.00;101642.03;5077048;28;45292;-72
2022/07/22 02:33:54;;;;;;;;;16.00;14.00;;;;;23.12;100.00;101647.47;5058412;28;52745;-75
2022/07/22 02:36:20;;;;;;;;;18.00;15.00;;;;;23.11;100.00;101642.13;5047232;28;45537;-71
2022/07/22 02:38:45;;;;;;;;;19.00;15.67;;;;;23.10;100.00;101641.22;5056763;28;53296;-72
2022/07/22 02:41:11;;;;;;;;;15.00;12.67;;;;;23.07;100.00;101637.75;5058670;28;45426;-71
2022/07/22 02:43:36;;;;;;;;;13.00;11.67;;;;;23.05;100.00;101642.28;5076795;28;45675;-72
2022/07/22 02:46:02;;;;;;;;;14.00;12.67;;;;;23.02;100.00;101643.28;5076717;28;45220;-71
2022/07/22 02:48:27;;;;;;;;;16.33;13.00;;;;;22.99;100.00;101643.34;5076554;28;46276;-72
2022/07/22 02:50:53;;;;;;;;;16.33;15.00;;;;;22.99;100.00;101644.22;5078958;28;59589;-72
2022/07/22 02:53:18;;;;;;;;;14.00;13.00;;;;;22.98;100.00;101636.19;5079537;28;45414;-71
2022/07/22 02:55:43;;;;;;;;;15.33;15.33;;;;;22.96;100.00;101627.28;5079941;28;52875;-72
2022/07/22 02:58:09;;;;;;;;;20.67;15.67;;;;;22.95;100.00;101628.19;5079249;28;63856;-72
2022/07/22 03:00:37;;;;;;;;;13.33;13.33;;;;;22.92;100.00;101623.78;5062174;28;45284;-71
2022/07/22 03:03:03;;;;;;;;;15.00;12.00;;;;;22.88;100.00;101622.09;5062557;28;45339;-72
2022/07/22 03:05:28;;;;;;;;;13.33;13.33;;;;;22.89;100.00;101620.28;5080461;28;45516;-71
2022/07/22 03:07:54;;;;;;;;;15.67;13.00;;;;;22.87;100.00;101620.28;5079283;28;65440;-71
2022/07/22 03:10:19;;;;;;;;;14.33;13.00;;;;;22.87;100.00;101616.72;5079574;28;55351;-73
2022/07/22 03:12:44;;;;;;;;;19.00;16.00;;;;;22.85;100.00;101619.47;5080495;28;45243;-72
2022/07/22 03:15:10;;;;;;;;;17.00;14.00;;;;;22.84;100.00;101617.69;5079120;28;59084;-74
2022/07/22 03:17:36;;;;;;;;;12.33;12.33;;;;;22.83;100.00;101621.31;5078857;28;68610;-71
2022/07/22 03:20:06;;;;;;;;;15.00;14.67;;;;;22.81;100.00;101623.16;5079987;28;45425;-72
2022/07/22 03:22:32;;;;;;;;;18.00;13.33;;;;;22.78;100.00;101611.59;5079998;28;45203;-72
2022/07/22 03:24:58;;;;;;;;;12.00;12.00;;;;;22.74;100.00;101614.38;5080250;28;45271;-72
2022/07/22 03:27:23;;;;;;;;;15.00;15.00;;;;;22.74;100.00;101611.69;5080228;28;45831;-72
2022/07/22 03:29:48;;;;;;;;;14.67;13.00;;;;;22.73;100.00;101614.41;5081842;28;56186;-71
2022/07/22 03:32:14;;;;;;;;;15.00;15.00;;;;;22.73;100.00;101617.09;5061740;28;49005;-72
2022/07/22 03:34:39;;;;;;;;;15.00;14.33;;;;;22.70;100.00;101619.88;5079707;28;50949;-71
2022/07/22 03:37:04;;;;;;;;;18.33;13.33;;;;;22.69;100.00;101618.09;5079538;28;46428;-72
2022/07/22 03:39:30;;;;;;;;;15.67;14.67;;;;;22.64;100.00;101623.63;5061197;28;52839;-72
2022/07/22 03:41:56;;;;;;;;;16.00;13.00;;;;;22.61;100.00;101626.38;5079785;28;45442;-72
2022/07/22 03:44:21;;;;;;;;;16.00;14.33;;;;;22.61;100.00;101628.19;5078098;28;60874;-71
2022/07/22 03:46:46;;;;;;;;;17.33;15.00;;;;;22.59;100.00;101632.75;5059993;28;64997;-71
2022/07/22 03:49:12;;;;;;;;;14.00;14.00;;;;;22.56;100.00;101624.72;5078949;28;57031;-71
2022/07/22 03:51:37;;;;;;;;;14.33;13.67;;;;;22.56;100.00;101631.00;5078897;28;61152;-72
2022/07/22 03:54:02;;;;;;;;;17.67;13.67;;;;;22.54;100.00;101623.91;5078828;28;50035;-72
2022/07/22 03:56:28;;;;;;;;;20.00;15.00;;;;;22.52;100.00;101623.91;5078240;28;64267;-72
2022/07/22 03:58:53;;;;;;;;;16.33;13.00;;;;;22.49;100.00;101616.81;5078693;28;65199;-72
2022/07/22 04:01:18;;;;;;;;;14.00;13.00;;;;;22.48;100.00;101625.81;5077627;28;60730;-72
2022/07/22 04:03:44;;;;;;;;;15.33;12.67;;;;;22.44;100.00;101621.44;5079132;28;59132;-72
2022/07/22 04:06:09;;;;;;;;;14.67;13.33;;;;;22.44;100.00;101620.56;5078429;28;57818;-72
2022/07/22 04:08:35;;;;;;;;;16.00;12.33;;;;;22.44;100.00;101628.63;5079347;28;45228;-72
2022/07/22 04:11:00;;;;;;;;;13.00;13.00;;;;;22.42;100.00;101625.97;5078576;28;57566;-72
2022/07/22 04:13:25;;;;;;;;;15.33;12.67;;;;;22.40;100.00;101617.06;5078996;28;45316;-72
2022/07/22 04:15:51;;;;;;;;;12.00;12.00;;;;;22.40;100.00;101616.16;5078657;27;46488;-72
2022/07/22 04:18:17;;;;;;;;;13.67;12.67;;;;;22.37;100.00;101614.47;5078745;28;63007;-72
2022/07/22 04:20:43;;;;;;;;;13.00;11.00;;;;;22.33;100.00;101606.50;5078920;27;45525;-71
2022/07/22 04:23:08;;;;;;;;;12.33;11.67;;;;;22.33;100.00;101622.63;5079311;28;45363;-72
2022/07/22 04:25:33;;;;;;;;;11.33;10.33;;;;;22.31;100.00;101609.19;5078247;28;60839;-72
2022/07/22 04:27:58;;;;;;;;;13.33;12.33;;;;;22.28;100.00;101608.41;5078443;28;55007;-72
2022/07/22 04:30:24;;;;;;;;;15.33;14.33;;;;;22.30;100.00;101615.50;5078275;28;57702;-72
2022/07/22 04:32:49;;;;;;;;;15.67;14.33;;;;;22.27;100.00;101607.53;5078947;28;45394;-72
2022/07/22 04:35:14;;;;;;;;;15.67;11.67;;;;;22.29;100.00;101612.88;5078190;28;68341;-73
2022/07/22 04:37:40;;;;;;;;;15.67;11.00;;;;;22.28;100.00;101611.09;5078132;28;61270;-71
2022/07/22 04:40:06;;;;;;;;;17.00;14.33;;;;;22.27;100.00;101612.03;5077991;28;60202;-73
2022/07/22 04:42:31;;;;;;;;;13.00;13.00;;;;;22.27;100.00;101610.22;5078795;28;45351;-72
2022/07/22 04:44:56;;;;;;;;;19.67;12.67;;;;;22.26;100.00;101600.38;5077971;28;61729;-72
2022/07/22 04:47:22;;;;;;;;;17.67;14.00;;;;;22.23;100.00;101597.75;5078071;28;45431;-72
2022/07/22 04:49:47;;;;;;;;;13.67;13.33;;;;;22.25;100.00;101600.41;5078607;28;45291;-73
2022/07/22 04:52:13;;;;;;;;;14.67;13.67;;;;;22.22;100.00;101596.00;5078457;28;50934;-71
2022/07/22 04:54:38;;;;;;;;;15.00;14.00;;;;;22.21;100.00;101594.22;5059416;28;46455;-72
2022/07/22 04:57:03;;;;;;;;;12.00;12.00;;;;;22.24;100.00;101596.84;5077638;28;59500;-72
2022/07/22 04:59:29;;;;;;;;;15.67;12.00;;;;;22.22;100.00;101598.69;5078294;28;45663;-73
2022/07/22 05:01:54;;;;;;;;;14.67;13.00;;;;;22.21;100.00;101594.22;5078010;28;54257;-72
2022/07/22 05:04:19;;;;;;;;;14.00;12.00;;;;;22.22;100.00;101590.63;5078321;28;45600;-71
2022/07/22 05:06:45;;;;;;;;;17.00;13.00;;;;;22.23;100.00;101595.06;5078399;28;45209;-72
2022/07/22 05:09:10;;;;;;;;;14.67;13.33;;;;;22.20;100.00;101585.25;5077918;28;49557;-72
2022/07/22 05:11:35;;;;;;;;;14.67;13.33;;;;;22.22;100.00;101587.94;5078454;28;45185;-72
2022/07/22 05:14:01;;;;;;;;;12.67;11.00;;;;;22.21;100.00;101583.44;5077595;28;56358;-72
2022/07/22 05:16:26;;;;;;;;;13.67;11.33;;;;;22.23;100.00;101593.25;5077520;28;56190;-73
2022/07/22 05:18:51;;;;;;;;;17.33;14.33;;;;;22.27;100.00;101587.81;5077519;28;54784;-72
2022/07/22 05:21:17;;;;;;;;;17.33;13.00;;;;;22.28;100.00;101582.41;5078385;28;45257;-72
2022/07/22 05:23:42;;;;;;;;;16.67;14.00;;;;;22.30;100.00;101591.28;5077287;28;61478;-71
2022/07/22 05:26:09;;;;;;;;;14.33;11.67;;;;;22.30;100.00;101587.72;5077968;28;45265;-72
2022/07/22 05:28:34;;;;;;;;;15.67;14.33;;;;;22.31;100.00;101582.28;5077935;28;45225;-72
2022/07/22 05:31:00;;;;;;;;;17.67;15.33;;;;;22.32;100.00;101585.88;5078182;28;45390;-73
2022/07/22 05:33:25;;;;;;;;;19.33;13.67;;;;;22.30;100.00;101585.91;5058919;28;64767;-71
2022/07/22 05:35:51;;;;;;;;;9.33;9.33;;;;;22.30;100.00;101582.34;5077849;28;45446;-74
2022/07/22 05:38:16;;;;;;;;;16.00;14.33;;;;;22.33;100.00;101585.84;5059622;28;45320;-72
2022/07/22 05:40:42;;;;;;;;;16.33;13.67;;;;;22.34;100.00;101579.53;5077987;28;45277;-72
2022/07/22 05:43:07;;;;;;;;;18.67;13.67;;;;;22.34;100.00;101578.66;5077685;28;46736;-72
2022/07/22 05:45:32;;;;;;;;;12.00;12.00;;;;;22.36;100.00;101583.06;5059128;28;45485;-73
2022/07/22 05:47:58;;;;;;;;;16.33;11.67;;;;;22.42;100.00;101588.28;5076875;28;56716;-71
2022/07/22 05:50:23;;;;;;;;;16.67;13.67;;;;;22.46;100.00;101581.91;5059780;28;46485;-73
2022/07/22 05:52:48;;;;;;;;;16.33;13.00;;;;;22.48;100.00;101585.47;5077321;28;46086;-72
2022/07/22 05:55:14;;;;;;;;;15.67;12.67;;;;;22.50;100.00;101580.03;5058392;28;45473;-72
2022/07/22 05:57:39;;;;;;;;;14.33;14.33;;;;;22.51;100.00;101572.84;5076689;28;60759;-71
2022/07/22 06:00:06;;;;;;;;;18.33;13.00;;;;;22.52;100.00;101567.41;5058763;28;60469;-72
2022/07/22 06:02:31;;;;;;;;;16.00;13.33;;;;;22.54;100.00;101570.94;5077407;28;46545;-72
2022/07/22 06:04:56;;;;;;;;;15.00;13.00;;;;;22.49;100.00;101554.91;5077282;28;45268;-72
2022/07/22 06:07:22;;;;;;;;;13.67;13.67;;;;;22.54;100.00;101562.88;5077041;28;53861;-71
2022/07/22 06:09:47;;;;;;;;;13.67;12.00;;;;;22.59;100.00;101569.03;5077563;28;45347;-72
2022/07/22 06:12:12;;;;;;;;;13.00;11.33;;;;;22.63;100.00;101569.78;5077255;28;46639;-74
2022/07/22 06:14:38;;;;;;;;;14.33;12.67;;;;;22.66;100.00;101572.41;5076278;28;65415;-72
2022/07/22 06:17:03;;;;;;;;;17.67;13.00;;;;;22.67;100.00;101582.25;5076487;28;58801;-72
2022/07/22 06:19:29;;;;;;;;;10.67;10.67;;;;;;;;5059149;28;45448;-72
2022/07/22 06:21:55;;;;;;;;;14.33;14.33;;;;;22.72;100.00;101577.63;5077123;28;45879;-73
2022/07/22 06:24:20;;;;;;;;;15.33;13.67;;;;;22.74;100.00;101574.00;5061512;28;45448;-72
2022/07/22 06:26:46;;;;;;;;;15.33;13.67;;;;;22.80;100.00;101572.94;5083961;28;45342;-71
2022/07/22 06:29:11;;;;;;;;;16.00;11.33;;;;;22.85;100.00;101583.53;5083990;28;45558;-72
2022/07/22 06:31:37;;;;;;;;;12.67;12.67;;;;;22.90;100.00;101570.88;5064762;28;67136;-72
2022/07/22 06:34:05;;;;;;;;;16.00;14.00;;;;;22.92;100.00;101578.00;5082917;28;61293;-72
2022/07/22 06:36:31;;;;;;;;;15.00;12.33;;;;;22.95;100.00;101571.63;5083744;28;45306;-71
2022/07/22 06:38:56;;;;;;;;;16.33;14.67;;;;;22.97;100.00;101577.88;5083711;28;45430;-72
2022/07/22 06:41:22;;;;;;;;;17.67;16.00;;;;;23.03;100.00;101577.69;5082608;28;68779;-71
2022/07/22 06:43:47;;;;;;;;;16.00;12.67;;;;;23.07;100.00;101574.00;5082960;28;61886;-72
2022/07/22 06:46:12;;;;;;;;;17.33;13.33;;;;;23.11;100.00;101572.94;5082700;28;54427;-72
2022/07/22 06:48:38;;;;;;;;;14.67;13.67;;;;;23.17;100.00;101569.19;5082937;28;56970;-72
2022/07/22 06:51:03;;;;;;;;;16.00;14.00;;;;;23.23;100.00;101578.00;5083563;28;46683;-72
2022/07/22 06:53:29;;;;;;;;;17.00;15.67;;;;;23.31;100.00;101591.22;5082974;28;45371;-72
2022/07/22 06:55:54;;;;;;;;;17.00;15.00;;;;;23.35;100.00;101598.31;5083093;28;49243;-72
2022/07/22 06:58:19;;;;;;;;;14.33;13.00;;;;;23.43;100.00;101598.06;5083429;28;45212;-73
2022/07/22 07:00:45;;;;;;;;;15.67;12.67;;;;;23.47;100.00;101591.66;5065100;28;45621;-72
2022/07/22 07:03:11;;;;;;;;;14.67;14.00;;;;;23.50;100.00;101591.56;5065079;28;45431;-73
2022/07/22 07:05:36;;;;;;;;;12.33;11.33;;;;;23.55;100.00;101592.31;5083436;28;45351;-72
2022/07/22 07:08:02;;;;;;;;;18.33;16.33;;;;;23.61;100.00;101589.44;5083429;28;45643;-72
2022/07/22 07:10:27;;;;;;;;;17.67;16.67;;;;;23.68;100.00;101576.66;5083219;28;45834;-72
2022/07/22 07:12:57;;;;;;;;;19.33;17.67;;;;;23.77;100.00;101584.47;5083377;28;45384;-72
2022/07/22 07:15:22;;;;;;;;;20.33;16.00;;;;;23.82;100.00;101566.31;5083164;28;45346;-74
2022/07/22 07:17:48;;;;;;;;;17.33;13.33;;;;;23.91;100.00;101554.34;5083285;28;45545;-71
2022/07/22 07:20:13;;;;;;;;;16.33;15.33;;;;;23.96;100.00;101545.16;5082553;28;59722;-72
2022/07/22 07:22:38;;;;;;;;;18.33;15.00;;;;;24.01;100.00;101543.19;5064755;28;45303;-71
2022/07/22 07:25:05;;;;;;;;;16.00;16.00;;;;;24.08;100.00;101545.69;5082656;28;57042;-72
2022/07/22 07:27:30;;;;;;;;;21.00;16.00;;;;;24.14;100.00;101546.38;5064952;28;45924;-74
2022/07/22 07:29:56;;;;;;;;;19.67;16.00;;;;;24.21;100.00;101547.03;5083011;28;46266;-72
2022/07/22 07:32:21;;;;;;;;;14.67;14.00;;;;;24.24;100.00;101546.94;5064377;28;45386;-74
2022/07/22 07:34:46;;;;;;;;;17.33;13.67;;;;;24.33;100.00;101549.31;5084088;28;47245;-72
2022/07/22 07:37:12;;;;;;;;;23.00;16.33;;;;;24.37;100.00;101548.31;5078308;28;56949;-73
2022/07/22 07:39:37;;;;;;;;;16.33;13.33;;;;;24.42;100.00;101553.53;5078768;28;65132;-72
2022/07/22 07:42:03;;;;;;;;;17.33;14.00;;;;;24.44;100.00;101551.66;5078812;28;62353;-74
2022/07/22 07:44:28;;;;;;;;;12.33;11.00;;;;;24.51;100.00;101555.94;5079550;28;45320;-72
2022/07/22 07:46:53;;;;;;;;;14.67;12.67;;;;;24.60;100.00;101565.50;5079306;28;45532;-72
2022/07/22 07:49:19;;;;;;;;;19.67;18.67;;;;;24.67;100.00;101567.06;5078854;28;58460;-72
2022/07/22 07:51:44;;;;;;;;;20.67;15.67;;;;;24.70;99.98;101562.41;5078672;28;56830;-71
2022/07/22 07:54:10;;;;;;;;;21.67;19.00;;;;;24.79;99.34;101572.00;5060697;28;45347;-72
2022/07/22 07:56:35;;;;;;;;;16.00;14.33;;;;;24.84;99.46;101578.13;5061073;28;45456;-72
2022/07/22 07:59:01;;;;;;;;;16.67;16.00;;;;;24.90;99.13;101579.72;5079283;28;45281;-72
2022/07/22 08:01:26;;;;;;;;;20.00;18.00;;;;;24.95;98.90;101566.94;5079172;28;45427;-72
2022/07/22 08:03:51;;;;;;;;;18.67;16.00;;;;;25.00;98.60;101563.13;5079337;28;45632;-71
2022/07/22 08:06:17;;;;;;;;;15.00;15.00;;;;;25.08;98.62;101562.84;5079308;28;45452;-71
2022/07/22 08:08:42;;;;;;;;;19.00;18.67;;;;;25.13;97.75;101552.75;5060141;28;68423;-71
2022/07/22 08:11:08;;;;;;;;;18.33;16.00;;;;;25.16;96.95;101562.56;5078924;28;45421;-72
2022/07/22 08:13:33;;;;;;;;;18.00;15.67;;;;;25.19;97.19;101562.44;5061080;28;45766;-72
2022/07/22 08:15:59;;;;;;;;;19.00;17.33;;;;;25.21;97.14;101556.06;5060460;28;45387;-72
2022/07/22 08:18:24;;;;;;;;;17.33;17.00;;;;;25.24;96.92;101546.94;5060765;28;46281;-71
2022/07/22 08:20:50;;;;;;;;;17.33;17.33;;;;;25.27;97.02;101550.41;5078947;28;45375;-71
2022/07/22 08:23:15;;;;;;;;;16.00;16.00;;;;;25.30;96.38;101547.59;5060824;28;45288;-74
2022/07/22 08:25:41;;;;;;;;;18.00;17.00;;;;;25.34;96.26;101545.63;5078951;28;45507;-72
2022/07/22 08:28:06;;;;;;;;;18.33;16.00;;;;;25.38;96.17;101543.69;5078892;28;45952;-72
2022/07/22 08:30:31;;;;;;;;;18.33;17.67;;;;;25.41;96.39;101549.88;5078621;28;45309;-75
2022/07/22 08:32:57;;;;;;;;;16.33;16.33;;;;;25.45;96.34;101545.22;5078802;28;45492;-71
2022/07/22 08:35:22;;;;;;;;;18.33;14.67;;;;;25.46;96.18;101546.97;5078888;28;45374;-72
2022/07/22 08:37:48;;;;;;;;;18.00;16.67;;;;;25.54;95.58;101559.25;5078548;28;45644;-71
2022/07/22 08:40:15;;;;;;;;;18.00;16.67;;;;;25.59;95.69;101551.84;5078467;28;45188;-72
2022/07/22 08:42:43;;;;;;;;;19.00;17.67;;;;;25.64;95.33;101550.78;5078573;28;45362;-72
2022/07/22 08:45:09;;;;;;;;;16.00;15.67;;;;;25.69;94.84;101535.25;5078518;28;45307;-74
2022/07/22 08:47:34;;;;;;;;;17.33;15.67;;;;;25.71;95.18;101523.41;5200465;22;46513;-72
2022/07/22 08:50:01;;;;;;;;;17.33;16.00;;;;;25.77;94.50;101506.94;5060157;28;45376;-71
2022/07/22 08:52:26;;;;;;;;;17.33;16.00;;;;;25.87;94.46;101504.75;5060446;28;45485;-72
2022/07/22 08:54:51;;;;;;;;;18.33;16.00;;;;;25.93;93.95;101496.38;5076415;28;45304;-72
2022/07/22 08:57:18;;;;;;;;;18.33;15.00;;;;;25.93;93.83;101487.38;5077661;28;63149;-73
2022/07/22 08:59:56;;;;;;;;;17.33;15.00;;;;;26.01;93.61;101474.41;5059969;28;45703;-73
2022/07/22 09:02:22;;;;;;;;;16.33;16.33;;;;;26.03;94.16;101451.72;5078281;28;45395;-72
2022/07/22 09:04:57;;;;;;;;;19.67;17.33;;;;;26.07;93.93;101431.69;5078571;28;45210;-72
2022/07/22 09:07:25;;;;;;;;;16.67;16.67;;;;;26.10;93.96;101425.28;5078259;28;46887;-73
2022/07/22 09:09:50;;;;;;;;;15.33;15.33;;;;;26.14;93.40;101437.72;5078027;28;45254;-72
2022/07/22 09:12:15;;;;;;;;;18.00;17.00;;;;;26.17;92.86;101456.53;5077691;28;58010;-72
2022/07/22 09:14:50;;;;;;;;;19.00;16.33;;;;;26.27;93.02;101465.16;5077732;28;45564;-72
2022/07/22 09:17:30;;;;;;;;;16.67;16.67;;;;;26.34;93.30;101488.28;5077672;28;46042;-74
2022/07/22 09:19:56;;;;;;;;;20.33;16.00;;;;;26.42;93.23;101506.91;5059835;28;45248;-72
2022/07/22 09:22:39;;;;;;;;;21.33;19.00;;;;;26.51;92.85;101534.47;5077851;28;45171;-72
2022/07/22 09:25:21;;;;;;;;;18.33;15.67;;;;;26.55;93.08;101543.38;5078102;27;45561;-73
2022/07/22 09:27:47;;;;;;;;;19.00;19.00;;;;;26.62;92.24;101526.75;5059624;28;45905;-74
2022/07/22 09:30:15;;;;;;;;;21.00;17.33;;;;;26.70;92.16;101526.44;5077791;28;45334;-71
2022/07/22 09:32:43;;;;;;;;;20.33;17.67;;;;;26.74;91.81;101522.63;5077945;28;45487;-74
2022/07/22 09:35:10;;;;;;;;;18.00;15.00;;;;;26.78;91.27;101526.94;5078123;28;45220;-72
2022/07/22 09:37:47;;;;;;;;;17.67;16.00;;;;;26.83;90.98;101508.66;5077742;28;45865;-72
2022/07/22 09:40:17;;;;;;;;;21.67;16.33;;;;;26.91;91.39;101500.19;5077774;28;45391;-73
2022/07/22 09:42:57;;;;;;;;;18.33;17.00;;;;;26.95;91.06;101487.34;5077646;28;45187;-72
2022/07/22 09:45:24;;;;;;;;;20.00;17.00;;;;;26.98;91.05;101492.63;5059375;28;45312;-71
2022/07/22 09:47:50;;;;;;;;;20.67;16.33;;;;;27.04;90.60;101495.03;5043326;28;46565;-73
2022/07/22 09:50:21;;;;;;;;;18.67;17.67;;;;;27.05;90.21;101507.66;5037010;28;45455;-71
2022/07/22 09:52:48;;;;;;;;;21.00;15.67;;;;;27.07;90.10;101503.97;5037208;28;45466;-72
2022/07/22 09:55:15;;;;;;;;;19.67;17.67;;;;;27.13;89.99;101516.34;5036091;28;45328;-72
2022/07/22 09:57:40;;;;;;;;;19.00;19.00;;;;;27.14;89.44;101513.56;5035849;28;46395;-72
2022/07/22 10:00:08;;;;;;;;;20.00;18.00;;;;;27.16;89.17;101516.19;5034654;28;45238;-71
2022/07/22 10:02:37;;;;;;;;;21.33;16.33;;;;;27.17;89.13;101511.66;5036886;28;45264;-72
2022/07/22 10:05:03;;;;;;;;;23.33;15.33;;;;;27.15;89.00;101503.59;5035901;28;45269;-72
2022/07/22 10:07:29;;;;;;;;;20.00;20.00;;;;;27.15;89.21;101504.47;5036810;28;45572;-72
2022/07/22 10:09:54;;;;;;;;;21.00;19.00;;;;;27.13;88.66;101508.22;5035637;28;45465;-72
2022/07/22 10:12:20;;;;;;;;;21.00;16.67;;;;;27.09;89.13;101504.75;5036625;28;56055;-73
2022/07/22 10:14:46;;;;;;;;;24.00;22.00;;;;;27.04;88.94;101506.75;5035804;28;45294;-72
2022/07/22 10:17:13;;;;;;;;;20.67;19.67;;;;;26.97;89.20;101502.59;5035345;28;46557;-72
2022/07/22 10:19:39;;;;;;;;;19.00;17.00;;;;;26.92;88.75;101496.50;5035341;28;45447;-72
2022/07/22 10:22:04;;;;;;;;;22.33;18.00;;;;;26.79;89.13;101479.94;5037009;28;45677;-72
2022/07/22 10:24:29;;;;;;;;;23.00;20.00;;;;;26.75;89.84;101482.88;5036788;28;45307;-72
2022/07/22 10:26:57;;;;;;;;;20.33;19.00;;;;;26.65;89.85;101482.41;5035955;28;61562;-71
2022/07/22 10:29:39;;;;;;;;;22.00;19.33;;;;;26.54;90.23;101485.59;5036645;28;45487;-71
2022/07/22 10:32:21;;;;;;;;;24.33;18.00;;;;;26.47;90.36;101484.09;5035483;28;45395;-72
2022/07/22 10:35:06;;;;;;;;;19.33;18.00;;;;;26.38;91.22;101476.38;5036927;28;45193;-72
2022/07/22 10:37:34;;;;;;;;;25.00;21.00;;;;;26.31;92.28;101483.00;5036453;28;45916;-72
2022/07/22 10:40:20;;;;;;;;;19.00;19.00;;;;;26.25;93.39;101475.16;5036515;28;45217;-72
2022/07/22 10:43:00;;;;;;;;;20.67;19.33;;;;;26.21;95.12;101451.88;5036736;28;45340;-72
2022/07/22 10:45:33;;;;;;;;;26.33;23.33;;;;;26.15;97.05;101435.88;5036157;28;45324;-72
2022/07/22 10:48:05;;;;;;;;;26.00;22.33;;;;;26.10;98.47;101420.75;5061674;28;46224;-72
2022/07/22 10:50:42;;;;;;;;;24.00;24.00;;;;;26.08;99.97;101410.94;5076745;28;45407;-72
2022/07/22 10:53:09;;;;;;;;;25.00;22.33;;;;;26.04;100.00;101398.47;5076449;28;45326;-73
2022/07/22 10:55:35;;;;;;;;;21.67;20.67;;;;;25.99;100.00;101378.84;5076419;28;45506;-72
2022/07/22 10:58:40;;;;;;;;;20.33;17.00;;;;;26.00;100.00;101359.88;5076700;28;45339;-72
2022/07/22 11:01:07;;;;;;;;;27.67;23.67;;;;;26.00;100.00;101357.16;5076543;28;45356;-72